Time;durP1;ratioP1;P1;durP2;ratioP2;P2;SDS_P1;SDS_P2;PMS_P1;PMS_P2;Temp;Humidity;BMP_temperature;BMP_pressure;BME280_temperature;BME280_humidity;BME280_pressure;Samples;Min_cycle;Max_cycle;Signal;HPM_P1;HPM_P2
2021/06/28 00:00:22;;;;;;;4.15;2.75;;;;;;;;;;4900267;29;20055;-88
2021/06/28 00:02:48;;;;;;;4.85;2.83;;;;;;;;;;4899062;29;20025;-87
2021/06/28 00:05:16;;;;;;;4.93;2.80;;;;;;;;;;4900309;29;20064;-86
2021/06/28 00:07:43;;;;;;;4.22;2.55;;;;;;;;;;4898856;29;20492;-86
2021/06/28 00:10:10;;;;;;;4.55;2.72;;;;;;;;;;4898953;29;20494;-86
2021/06/28 00:12:37;;;;;;;5.03;2.70;;;;;;;;;;4899214;29;20092;-86
2021/06/28 00:15:05;;;;;;;4.93;2.80;;;;;;;;;;4900131;29;20036;-84
2021/06/28 00:17:31;;;;;;;4.20;2.47;;;;;;;;;;4898755;29;20478;-86
2021/06/28 00:19:57;;;;;;;5.68;2.60;;;;;;;;;;4898736;29;20570;-88
2021/06/28 00:22:23;;;;;;;4.45;2.60;;;;;;;;;;4898901;29;20020;-85
2021/06/28 00:24:50;;;;;;;7.00;2.70;;;;;;;;;;4898527;29;20466;-86
2021/06/28 00:27:16;;;;;;;4.95;2.60;;;;;;;;;;4898479;29;20111;-85
2021/06/28 00:29:42;;;;;;;4.88;2.95;;;;;;;;;;4898560;29;20033;-88
2021/06/28 00:32:08;;;;;;;3.83;2.47;;;;;;;;;;4898593;29;20072;-85
2021/06/28 00:34:34;;;;;;;5.75;2.70;;;;;;;;;;4898454;29;20084;-86
2021/06/28 00:37:03;;;;;;;4.43;3.05;;;;;;;;;;4899827;29;20025;-87
2021/06/28 00:39:29;;;;;;;5.22;3.08;;;;;;;;;;4906196;29;20425;-88
2021/06/28 00:41:55;;;;;;;5.57;3.10;;;;;;;;;;4918638;29;20032;-85
2021/06/28 00:44:22;;;;;;;4.65;2.97;;;;;;;;;;4901427;29;20508;-88
2021/06/28 00:46:48;;;;;;;4.15;2.80;;;;;;;;;;4901479;29;20035;-85
2021/06/28 00:49:14;;;;;;;5.53;2.92;;;;;;;;;;4901359;29;20028;-85
2021/06/28 00:51:41;;;;;;;5.20;3.45;;;;;;;;;;4918181;29;20502;-86
2021/06/28 00:54:07;;;;;;;6.32;3.10;;;;;;;;;;4901172;29;20133;-85
2021/06/28 00:56:33;;;;;;;9.43;3.03;;;;;;;;;;4901492;29;20044;-84
2021/06/28 00:59:00;;;;;;;5.40;2.67;;;;;;;;;;4901240;29;20036;-86
2021/06/28 01:01:26;;;;;;;5.85;3.17;;;;;;;;;;4918273;29;20099;-84
2021/06/28 01:03:53;;;;;;;4.55;3.17;;;;;;;;;;4901214;29;20039;-88
2021/06/28 01:06:19;;;;;;;6.38;2.80;;;;;;;;;;4918173;29;20028;-88
2021/06/28 01:08:46;;;;;;;5.13;3.10;;;;;;;;;;4918443;29;20080;-85
2021/06/28 01:11:13;;;;;;;5.57;3.25;;;;;;;;;;4901192;29;20033;-90
2021/06/28 01:13:41;;;;;;;4.32;2.80;;;;;;;;;;4918682;29;20024;-86
2021/06/28 01:16:08;;;;;;;6.45;3.13;;;;;;;;;;4901221;29;20398;-89
2021/06/28 01:18:34;;;;;;;6.50;3.35;;;;;;;;;;4917967;29;20036;-84
2021/06/28 01:21:01;;;;;;;5.20;3.20;;;;;;;;;;4901569;29;20034;-90
2021/06/28 01:23:29;;;;;;;7.05;3.50;;;;;;;;;;4902416;29;20446;-85
2021/06/28 01:25:56;;;;;;;3.60;2.65;;;;;;;;;;4901993;29;20036;-85
2021/06/28 01:28:23;;;;;;;5.93;3.30;;;;;;;;;;4901035;29;20032;-86
2021/06/28 01:30:51;;;;;;;5.97;3.40;;;;;;;;;;4900890;29;20028;-88
2021/06/28 01:33:17;;;;;;;7.40;3.55;;;;;;;;;;4900820;29;20426;-86
2021/06/28 01:35:44;;;;;;;5.60;3.40;;;;;;;;;;4900625;29;20043;-87
2021/06/28 01:38:10;;;;;;;6.20;3.22;;;;;;;;;;4917687;29;20060;-87
2021/06/28 01:40:37;;;;;;;9.68;3.53;;;;;;;;;;4897433;29;20061;-86
2021/06/28 01:43:04;;;;;;;4.95;3.42;;;;;;;;;;4897636;29;20080;-87
2021/06/28 01:45:31;;;;;;;7.03;3.17;;;;;;;;;;4899128;29;20044;-85
2021/06/28 01:47:58;;;;;;;5.65;3.30;;;;;;;;;;4899114;29;20366;-85
2021/06/28 01:50:25;;;;;;;5.60;3.22;;;;;;;;;;4897602;29;20554;-85
2021/06/28 01:52:51;;;;;;;7.07;3.47;;;;;;;;;;4897600;29;20478;-88
2021/06/28 01:55:19;;;;;;;5.40;3.38;;;;;;;;;;4897594;29;20056;-85
2021/06/28 01:57:47;;;;;;;6.28;3.50;;;;;;;;;;4898603;29;20051;-85
2021/06/28 02:00:15;;;;;;;6.68;3.78;;;;;;;;;;4897321;29;20402;-84
2021/06/28 02:02:41;;;;;;;5.43;3.40;;;;;;;;;;4897609;29;20034;-88
2021/06/28 02:05:09;;;;;;;5.20;3.42;;;;;;;;;;4897913;29;20025;-87
2021/06/28 02:07:35;;;;;;;6.57;3.47;;;;;;;;;;4897458;29;20435;-86
2021/06/28 02:10:01;;;;;;;5.75;3.58;;;;;;;;;;4897267;29;20172;-87
2021/06/28 02:12:28;;;;;;;6.63;3.72;;;;;;;;;;4897410;29;20031;-87
2021/06/28 02:14:54;;;;;;;4.75;3.20;;;;;;;;;;4897362;29;20036;-86
2021/06/28 02:17:20;;;;;;;5.10;2.90;;;;;;;;;;4898676;29;20024;-88
2021/06/28 02:19:47;;;;;;;6.45;3.58;;;;;;;;;;4898822;29;20043;-88
2021/06/28 02:22:14;;;;;;;4.85;3.17;;;;;;;;;;4898450;29;20032;-85
2021/06/28 02:24:40;;;;;;;6.32;3.63;;;;;;;;;;4897226;29;20028;-86
2021/06/28 02:27:06;;;;;;;5.60;3.28;;;;;;;;;;4900479;29;20024;-88
2021/06/28 02:29:32;;;;;;;8.32;3.50;;;;;;;;;;4900942;29;20039;-86
2021/06/28 02:32:01;;;;;;;6.45;3.42;;;;;;;;;;4900719;29;20435;-86
2021/06/28 02:34:27;;;;;;;7.72;3.22;;;;;;;;;;4900977;29;20028;-86
2021/06/28 02:36:55;;;;;;;5.95;3.30;;;;;;;;;;4900840;29;20064;-86
2021/06/28 02:39:21;;;;;;;5.10;3.25;;;;;;;;;;4907624;29;20127;-85
2021/06/28 02:41:47;;;;;;;6.97;3.42;;;;;;;;;;4903942;29;20067;-86
2021/06/28 02:44:13;;;;;;;5.38;3.63;;;;;;;;;;4903910;29;20028;-87
2021/06/28 02:46:40;;;;;;;8.73;3.42;;;;;;;;;;4904047;29;20032;-87
2021/06/28 02:49:06;;;;;;;5.20;3.08;;;;;;;;;;4933889;29;20085;-87
2021/06/28 02:51:32;;;;;;;6.70;3.63;;;;;;;;;;4928441;29;20032;-86
2021/06/28 02:53:59;;;;;;;5.72;3.38;;;;;;;;;;4928283;29;20065;-86
2021/06/28 02:56:25;;;;;;;6.05;3.58;;;;;;;;;;4927764;29;20039;-85
2021/06/28 02:58:56;;;;;;;5.03;3.20;;;;;;;;;;4927680;29;20107;-84
2021/06/28 03:01:24;;;;;;;4.85;3.22;;;;;;;;;;4927675;29;20108;-87
2021/06/28 03:03:50;;;;;;;5.72;3.53;;;;;;;;;;4928312;29;20008;-85
2021/06/28 03:06:17;;;;;;;4.97;2.70;;;;;;;;;;4944331;29;20016;-86
2021/06/28 03:08:44;;;;;;;4.45;3.22;;;;;;;;;;4944369;29;20024;-86
2021/06/28 03:11:10;;;;;;;12.18;3.30;;;;;;;;;;4927889;29;20027;-85
2021/06/28 03:13:37;;;;;;;6.47;3.28;;;;;;;;;;4928099;29;20021;-86
2021/06/28 03:16:04;;;;;;;5.90;3.55;;;;;;;;;;4927709;29;20036;-84
2021/06/28 03:18:31;;;;;;;7.75;3.97;;;;;;;;;;4943670;29;20028;-86
2021/06/28 03:20:58;;;;;;;5.85;3.50;;;;;;;;;;4943980;29;20052;-84
2021/06/28 03:23:24;;;;;;;7.95;3.67;;;;;;;;;;4943581;29;20016;-87
2021/06/28 03:25:50;;;;;;;7.13;4.15;;;;;;;;;;4920637;29;20029;-85
2021/06/28 03:28:16;;;;;;;6.05;3.40;;;;;;;;;;4904950;29;20028;-84
2021/06/28 03:30:44;;;;;;;5.22;3.58;;;;;;;;;;4921547;29;20147;-87
2021/06/28 03:33:11;;;;;;;5.97;3.30;;;;;;;;;;4904062;29;20027;-84
2021/06/28 03:35:37;;;;;;;6.15;3.72;;;;;;;;;;4905204;29;20083;-87
2021/06/28 03:38:04;;;;;;;5.55;3.22;;;;;;;;;;4920632;29;20028;-86
2021/06/28 03:40:36;;;;;;;6.82;3.40;;;;;;;;;;4921672;29;20103;-84
2021/06/28 03:43:06;;;;;;;6.68;3.70;;;;;;;;;;4921453;29;20043;-83
2021/06/28 03:45:33;;;;;;;7.72;3.97;;;;;;;;;;4921921;29;20020;-85
2021/06/28 03:47:59;;;;;;;5.30;3.67;;;;;;;;;;4921045;29;20032;-84
2021/06/28 03:50:25;;;;;;;5.93;3.65;;;;;;;;;;4904559;29;20039;-84
2021/06/28 03:52:51;;;;;;;7.90;3.97;;;;;;;;;;4904099;29;20056;-85
2021/06/28 03:55:17;;;;;;;5.70;3.47;;;;;;;;;;4921440;29;20024;-84
2021/06/28 03:57:44;;;;;;;5.55;3.75;;;;;;;;;;4904242;29;20112;-86
2021/06/28 04:00:18;;;;;;;5.55;3.70;;;;;;;;;;4907945;29;20401;-86
2021/06/28 04:02:45;;;;;;;5.88;3.70;;;;;;;;;;4908445;29;20036;-86
2021/06/28 04:05:13;;;;;;;6.45;3.67;;;;;;;;;;4904791;29;20024;-84
2021/06/28 04:07:39;;;;;;;5.03;3.30;;;;;;;;;;4902234;29;20039;-86
2021/06/28 04:10:07;;;;;;;7.50;3.47;;;;;;;;;;4902276;29;20066;-85
2021/06/28 04:12:33;;;;;;;4.38;2.90;;;;;;;;;;4902324;29;20115;-84
2021/06/28 04:14:59;;;;;;;3.90;2.53;;;;;;;;;;4901909;29;20585;-88
2021/06/28 04:17:26;;;;;;;6.30;2.72;;;;;;;;;;4919331;29;20051;-86
2021/06/28 04:19:53;;;;;;;5.63;2.95;;;;;;;;;;4902264;29;20047;-88
2021/06/28 04:22:19;;;;;;;5.45;2.58;;;;;;;;;;4919512;29;20039;-84
2021/06/28 04:24:45;;;;;;;4.85;2.67;;;;;;;;;;4901802;29;20386;-86
2021/06/28 04:27:12;;;;;;;5.70;2.58;;;;;;;;;;4918703;29;20075;-89
2021/06/28 04:29:40;;;;;;;4.75;2.53;;;;;;;;;;4901913;29;20032;-88
2021/06/28 04:32:06;;;;;;;4.78;2.72;;;;;;;;;;4901478;29;20091;-86
2021/06/28 04:34:33;;;;;;;4.82;2.80;;;;;;;;;;4901709;29;20028;-86
2021/06/28 04:36:59;;;;;;;6.68;3.25;;;;;;;;;;4901580;29;20115;-85
2021/06/28 04:39:25;;;;;;;4.53;3.10;;;;;;;;;;4898079;29;20052;-86
2021/06/28 04:41:51;;;;;;;5.45;3.10;;;;;;;;;;4899605;29;20032;-85
2021/06/28 04:44:18;;;;;;;7.07;3.70;;;;;;;;;;4899509;29;20101;-86
2021/06/28 04:46:45;;;;;;;4.53;3.05;;;;;;;;;;4900252;29;20032;-85
2021/06/28 04:49:12;;;;;;;5.22;3.42;;;;;;;;;;4897154;29;20060;-86
2021/06/28 04:51:39;;;;;;;6.15;3.40;;;;;;;;;;4898719;29;20032;-86
2021/06/28 04:54:06;;;;;;;5.35;3.38;;;;;;;;;;4898044;29;20032;-85
2021/06/28 04:56:32;;;;;;;4.72;2.92;;;;;;;;;;4898015;29;20020;-86
2021/06/28 04:58:58;;;;;;;5.07;3.40;;;;;;;;;;4897762;29;20040;-84
2021/06/28 05:01:24;;;;;;;5.13;3.17;;;;;;;;;;4899027;29;20055;-86
2021/06/28 05:03:50;;;;;;;9.57;3.28;;;;;;;;;;4897939;29;20040;-87
2021/06/28 05:06:17;;;;;;;4.68;3.25;;;;;;;;;;4897794;29;20029;-85
2021/06/28 05:08:43;;;;;;;9.68;3.08;;;;;;;;;;4897975;29;20029;-91
2021/06/28 05:11:09;;;;;;;5.50;3.13;;;;;;;;;;4899014;29;20028;-91
2021/06/28 05:13:36;;;;;;;4.05;2.95;;;;;;;;;;4899377;29;20498;-85
2021/06/28 05:16:02;;;;;;;5.28;3.33;;;;;;;;;;4897703;29;20031;-90
2021/06/28 05:18:28;;;;;;;5.40;3.05;;;;;;;;;;4898783;29;20036;-86
2021/06/28 05:20:55;;;;;;;5.68;3.33;;;;;;;;;;4897486;29;20393;-87
2021/06/28 05:23:21;;;;;;;5.63;3.60;;;;;;;;;;4897539;29;20067;-91
2021/06/28 05:25:47;;;;;;;4.70;3.10;;;;;;;;;;4897493;29;20067;-85
2021/06/28 05:28:15;;;;;;;4.15;3.30;;;;;;;;;;4897132;29;20032;-85
2021/06/28 05:30:41;;;;;;;5.57;3.80;;;;;;;;;;4897495;29;20025;-85
2021/06/28 05:33:07;;;;;;;4.75;2.78;;;;;;;;;;4897313;29;20060;-84
2021/06/28 05:35:34;;;;;;;7.25;3.50;;;;;;;;;;4897311;29;20479;-84
2021/06/28 05:38:00;;;;;;;4.75;3.10;;;;;;;;;;4897252;29;20032;-84
2021/06/28 05:40:26;;;;;;;5.18;3.22;;;;;;;;;;4912402;29;20062;-85
2021/06/28 05:42:52;;;;;;;6.15;2.90;;;;;;;;;;4900310;29;20051;-84
2021/06/28 05:45:18;;;;;;;4.90;2.90;;;;;;;;;;4900405;29;20040;-82
2021/06/28 05:47:45;;;;;;;4.55;2.83;;;;;;;;;;4917791;29;20084;-83
2021/06/28 05:50:14;;;;;;;6.72;2.70;;;;;;;;;;4900255;29;20036;-84
2021/06/28 05:52:41;;;;;;;4.55;2.80;;;;;;;;;;4900105;29;20029;-83
2021/06/28 05:55:08;;;;;;;7.28;2.65;;;;;;;;;;4900260;29;20363;-84
2021/06/28 05:57:34;;;;;;;5.35;2.47;;;;;;;;;;4917109;29;20028;-84
2021/06/28 06:00:00;;;;;;;4.45;3.03;;;;;;;;;;4900060;29;20095;-83
2021/06/28 06:02:27;;;;;;;5.07;2.63;;;;;;;;;;4903939;29;20024;-90
2021/06/28 06:04:53;;;;;;;8.10;2.65;;;;;;;;;;4921067;29;20059;-85
2021/06/28 06:07:19;;;;;;;7.22;2.90;;;;;;;;;;4904021;29;20030;-85
2021/06/28 06:09:45;;;;;;;3.63;2.17;;;;;;;;;;4921067;29;20385;-84
2021/06/28 06:12:12;;;;;;;3.65;2.30;;;;;;;;;;4921484;29;20024;-92
2021/06/28 06:14:38;;;;;;;5.38;2.45;;;;;;;;;;4921635;29;20032;-88
2021/06/28 06:17:04;;;;;;;3.83;2.50;;;;;;;;;;4903862;29;20021;-84
2021/06/28 06:19:30;;;;;;;5.53;2.30;;;;;;;;;;4903956;29;20044;-84
2021/06/28 06:21:57;;;;;;;5.55;2.15;;;;;;;;;;4903708;29;20060;-84
2021/06/28 06:24:27;;;;;;;5.10;2.45;;;;;;;;;;4920693;29;20039;-84
2021/06/28 06:26:53;;;;;;;3.95;2.28;;;;;;;;;;4903584;29;20032;-84
2021/06/28 06:29:19;;;;;;;3.95;2.60;;;;;;;;;;4903639;29;20029;-84
2021/06/28 06:31:45;;;;;;;4.45;2.40;;;;;;;;;;4904622;29;20028;-84
2021/06/28 06:34:11;;;;;;;3.67;2.17;;;;;;;;;;4903475;29;20032;-86
2021/06/28 06:36:37;;;;;;;3.13;2.00;;;;;;;;;;4903607;29;20028;-84
2021/06/28 06:39:04;;;;;;;6.22;2.30;;;;;;;;;;4903039;29;20045;-84
2021/06/28 06:41:30;;;;;;;2.90;2.08;;;;;;;;;;4903402;29;20028;-85
2021/06/28 06:43:56;;;;;;;2.65;1.90;;;;;;;;;;4903353;29;20032;-85
2021/06/28 06:46:23;;;;;;;3.88;2.00;;;;;;;;;;4903235;29;20060;-85
2021/06/28 06:48:49;;;;;;;5.50;2.30;;;;;;;;;;4903291;29;20060;-84
2021/06/28 06:51:17;;;;;;;3.33;2.10;;;;;;;;;;4903130;29;20478;-84
2021/06/28 06:53:43;;;;;;;4.20;2.25;;;;;;;;;;4903125;29;20040;-88
2021/06/28 06:56:09;;;;;;;5.10;2.03;;;;;;;;;;4903062;29;20028;-85
2021/06/28 06:58:36;;;;;;;4.85;2.17;;;;;;;;;;4902925;29;20118;-84
2021/06/28 07:01:03;;;;;;;4.18;2.38;;;;;;;;;;4903010;29;20099;-85
2021/06/28 07:03:29;;;;;;;3.10;2.15;;;;;;;;;;4902898;29;20036;-84
2021/06/28 07:05:55;;;;;;;7.72;2.33;;;;;;;;;;4902917;29;20032;-85
2021/06/28 07:08:21;;;;;;;5.25;2.45;;;;;;;;;;4902887;29;20035;-84
2021/06/28 07:10:49;;;;;;;4.57;2.47;;;;;;;;;;4904008;29;20036;-84
2021/06/28 07:13:15;;;;;;;2.97;2.38;;;;;;;;;;4920000;29;20027;-83
2021/06/28 07:15:42;;;;;;;3.05;2.42;;;;;;;;;;4903788;29;20028;-88
2021/06/28 07:18:08;;;;;;;4.57;2.67;;;;;;;;;;4921086;29;20035;-84
2021/06/28 07:20:34;;;;;;;2.33;1.73;;;;;;;;;;4920261;29;20040;-85
2021/06/28 07:23:00;;;;;;;8.13;2.75;;;;;;;;;;4922273;29;20039;-83
2021/06/28 07:25:27;;;;;;;2.75;2.10;;;;;;;;;;4919580;29;20396;-89
2021/06/28 07:27:53;;;;;;;2.92;2.13;;;;;;;;;;4902673;29;20028;-85
2021/06/28 07:30:21;;;;;;;6.05;2.70;;;;;;;;;;4919602;29;20032;-85
2021/06/28 07:32:50;;;;;;;4.22;3.00;;;;;;;;;;4902551;29;20024;-86
2021/06/28 07:35:17;;;;;;;4.10;2.55;;;;;;;;;;4902397;29;20024;-85
2021/06/28 07:37:44;;;;;;;4.80;2.38;;;;;;;;;;4902693;29;20040;-91
2021/06/28 07:40:13;;;;;;;6.03;2.72;;;;;;;;;;4919188;29;20134;-85
2021/06/28 07:42:39;;;;;;;4.00;2.58;;;;;;;;;;4902431;29;20538;-84
2021/06/28 07:45:06;;;;;;;4.53;2.58;;;;;;;;;;4902475;29;20065;-84
2021/06/28 07:47:34;;;;;;;7.30;2.40;;;;;;;;;;4919192;29;20080;-84
2021/06/28 07:50:00;;;;;;;3.42;2.47;;;;;;;;;;4919634;29;20056;-90
2021/06/28 07:52:29;;;;;;;4.82;2.80;;;;;;;;;;4919746;29;20028;-84
2021/06/28 07:54:56;;;;;;;3.33;2.28;;;;;;;;;;4902261;29;20020;-84
2021/06/28 07:57:22;;;;;;;4.78;2.60;;;;;;;;;;4919512;29;20028;-84
2021/06/28 07:59:48;;;;;;;6.35;2.38;;;;;;;;;;4901842;29;20047;-84
2021/06/28 08:02:15;;;;;;;4.93;2.72;;;;;;;;;;4918996;29;20071;-84
2021/06/28 08:04:41;;;;;;;2.85;2.35;;;;;;;;;;4919329;29;20034;-85
2021/06/28 08:07:07;;;;;;;5.85;2.80;;;;;;;;;;4901843;29;20123;-84
2021/06/28 08:09:34;;;;;;;7.10;2.70;;;;;;;;;;4919329;29;20043;-84
2021/06/28 08:12:00;;;;;;;4.05;2.53;;;;;;;;;;4918943;29;20028;-84
2021/06/28 08:14:27;;;;;;;3.10;2.25;;;;;;;;;;4901900;29;20035;-84
2021/06/28 08:16:53;;;;;;;3.33;2.25;;;;;;;;;;4918809;29;20067;-84
2021/06/28 08:19:19;;;;;;;4.60;2.55;;;;;;;;;;4901750;29;20047;-91
2021/06/28 08:21:47;;;;;;;6.00;2.00;;;;;;;;;;4918831;29;20028;-89
2021/06/28 08:24:14;;;;;;;3.33;2.05;;;;;;;;;;4901841;29;20391;-84
2021/06/28 08:26:40;;;;;;;4.93;2.40;;;;;;;;;;4901724;29;20474;-85
2021/06/28 08:29:07;;;;;;;3.22;2.20;;;;;;;;;;4918722;29;20031;-84
2021/06/28 08:31:35;;;;;;;3.15;1.88;;;;;;;;;;4918562;29;20403;-90
2021/06/28 08:34:01;;;;;;;3.17;2.00;;;;;;;;;;4901320;29;20031;-84
2021/06/28 08:36:27;;;;;;;8.10;2.97;;;;;;;;;;4918461;29;20035;-84
2021/06/28 08:38:54;;;;;;;4.07;2.35;;;;;;;;;;4918127;29;20489;-85
2021/06/28 08:41:20;;;;;;;4.70;2.10;;;;;;;;;;4901422;29;20452;-91
2021/06/28 08:43:47;;;;;;;4.55;2.10;;;;;;;;;;4901283;29;20028;-84
2021/06/28 08:46:14;;;;;;;2.35;1.90;;;;;;;;;;4918649;29;20035;-84
2021/06/28 08:48:44;;;;;;;2.45;1.80;;;;;;;;;;4918234;29;20033;-84
2021/06/28 08:51:11;;;;;;;3.45;1.90;;;;;;;;;;4918086;29;20028;-84
2021/06/28 08:53:37;;;;;;;4.15;2.00;;;;;;;;;;4901110;29;20123;-84
2021/06/28 08:56:07;;;;;;;4.38;1.73;;;;;;;;;;4901445;29;20032;-85
2021/06/28 08:58:42;;;;;;;6.18;1.88;;;;;;;;;;4901136;29;20036;-88
2021/06/28 09:01:10;;;;;;;2.40;1.90;;;;;;;;;;4902261;29;20090;-84
2021/06/28 09:03:36;;;;;;;2.88;1.60;;;;;;;;;;4900884;29;20031;-86
2021/06/28 09:06:04;;;;;;;2.80;1.80;;;;;;;;;;4901027;29;20028;-85
2021/06/28 09:08:50;;;;;;;4.32;2.30;;;;;;;;;;4918330;29;20024;-84
2021/06/28 09:11:17;;;;;;;5.55;2.30;;;;;;;;;;4916579;29;20462;-91
2021/06/28 09:13:45;;;;;;;8.05;2.03;;;;;;;;;;4917802;29;20032;-84
2021/06/28 09:16:16;;;;;;;3.55;2.20;;;;;;;;;;4900876;29;20124;-85
2021/06/28 09:18:49;;;;;;;2.78;2.10;;;;;;;;;;4900567;29;20100;-84
2021/06/28 09:21:16;;;;;;;2.47;1.85;;;;;;;;;;4900690;29;20043;-84
2021/06/28 09:23:43;;;;;;;3.33;1.90;;;;;;;;;;4918017;29;20111;-85
2021/06/28 09:26:13;;;;;;;3.55;1.90;;;;;;;;;;4918028;29;20036;-84
2021/06/28 09:28:42;;;;;;;2.33;1.60;;;;;;;;;;4917657;29;20043;-84
2021/06/28 09:31:09;;;;;;;3.65;1.58;;;;;;;;;;4917417;29;20272;-84
2021/06/28 09:33:36;;;;;;;5.22;1.60;;;;;;;;;;4900502;29;20043;-89
2021/06/28 09:36:24;;;;;;;4.75;1.92;;;;;;;;;;4900010;29;20024;-84
2021/06/28 09:38:50;;;;;;;3.05;1.80;;;;;;;;;;4900203;29;20036;-85
2021/06/28 09:41:28;;;;;;;3.95;1.90;;;;;;;;;;4900307;29;20040;-84
2021/06/28 09:44:03;;;;;;;2.67;1.60;;;;;;;;;;4900356;29;20032;-84
2021/06/28 09:46:29;;;;;;;3.85;1.42;;;;;;;;;;4900436;29;20399;-90
2021/06/28 09:48:56;;;;;;;2.40;1.33;;;;;;;;;;4917242;29;20028;-84
2021/06/28 09:51:25;;;;;;;2.28;1.50;;;;;;;;;;4917228;29;20032;-85
2021/06/28 09:54:14;;;;;;;2.30;1.58;;;;;;;;;;4900288;29;20052;-89
2021/06/28 09:56:46;;;;;;;3.08;1.40;;;;;;;;;;4891739;29;20029;-84
2021/06/28 09:59:19;;;;;;;2.90;1.60;;;;;;;;;;4917112;29;20063;-84
2021/06/28 10:01:46;;;;;;;2.15;1.23;;;;;;;;;;4900249;29;20036;-84
2021/06/28 10:04:36;;;;;;;3.03;1.80;;;;;;;;;;4917022;29;20032;-82
2021/06/28 10:07:22;;;;;;;2.30;1.50;;;;;;;;;;4900377;29;20020;-84
2021/06/28 10:10:06;;;;;;;2.00;1.50;;;;;;;;;;4900889;29;20397;-82
2021/06/28 10:12:33;;;;;;;2.00;1.30;;;;;;;;;;4901488;29;20084;-84
2021/06/28 10:14:59;;;;;;;3.25;1.48;;;;;;;;;;4900143;29;20119;-86
2021/06/28 10:17:25;;;;;;;3.65;1.65;;;;;;;;;;4900017;29;20032;-83
2021/06/28 10:19:52;;;;;;;5.47;1.50;;;;;;;;;;4899926;29;20504;-84
2021/06/28 10:22:18;;;;;;;4.13;1.92;;;;;;;;;;4899934;29;20165;-84
2021/06/28 10:24:44;;;;;;;3.38;1.50;;;;;;;;;;4899836;29;20032;-87
2021/06/28 10:27:10;;;;;;;2.75;1.60;;;;;;;;;;4917432;29;20024;-90
2021/06/28 10:29:37;;;;;;;4.15;1.60;;;;;;;;;;4899964;29;20450;-89
2021/06/28 10:32:08;;;;;;;3.88;1.83;;;;;;;;;;4899956;29;20063;-89
2021/06/28 10:34:34;;;;;;;3.20;1.85;;;;;;;;;;4900307;29;20060;-83
2021/06/28 10:37:02;;;;;;;4.45;1.77;;;;;;;;;;4899917;29;20028;-84
2021/06/28 10:39:30;;;;;;;4.50;1.85;;;;;;;;;;4896554;29;20056;-84
2021/06/28 10:41:57;;;;;;;3.28;1.80;;;;;;;;;;4896753;29;20033;-84
2021/06/28 10:44:24;;;;;;;5.53;1.92;;;;;;;;;;4897955;29;20084;-84
2021/06/28 10:46:52;;;;;;;3.15;1.90;;;;;;;;;;4898437;29;20033;-83
2021/06/28 10:49:52;;;;;;;7.15;2.28;;;;;;;;;;4901068;29;20044;-83
2021/06/28 10:52:41;;;;;;;2.80;2.10;;;;;;;;;;4870973;29;20150;-83
2021/06/28 10:55:20;;;;;;;2.85;1.80;;;;;;;;;;4901895;29;20427;-84
2021/06/28 10:57:53;;;;;;;5.35;2.10;;;;;;;;;;4900012;29;20040;-85
2021/06/28 11:00:39;;;;;;;3.30;1.98;;;;;;;;;;4899982;29;20068;-84
2021/06/28 11:03:35;;;;;;;3.03;1.80;;;;;;;;;;4901782;29;20093;-83
2021/06/28 11:06:10;;;;;;;3.60;2.08;;;;;;;;;;4888338;29;20101;-83
2021/06/28 11:08:41;;;;;;;5.25;1.77;;;;;;;;;;4899464;29;20040;-84
2021/06/28 11:11:07;;;;;;;11.02;2.05;;;;;;;;;;4899749;29;20039;-85
2021/06/28 11:13:38;;;;;;;3.58;2.13;;;;;;;;;;4899767;29;20541;-85
2021/06/28 11:16:23;;;;;;;3.10;2.17;;;;;;;;;;4899870;29;20032;-85
2021/06/28 11:18:50;;;;;;;5.43;2.30;;;;;;;;;;4899415;29;20060;-85
2021/06/28 11:21:36;;;;;;;3.10;1.85;;;;;;;;;;4900881;29;20032;-86
2021/06/28 11:24:02;;;;;;;2.67;1.80;;;;;;;;;;4900789;29;20097;-84
2021/06/28 11:26:35;;;;;;;2.72;1.63;;;;;;;;;;4899487;29;20033;-84
2021/06/28 11:29:02;;;;;;;5.50;1.98;;;;;;;;;;4899394;29;20100;-84
2021/06/28 11:31:29;;;;;;;4.38;1.77;;;;;;;;;;4900765;29;20387;-84
2021/06/28 11:33:57;;;;;;;3.00;2.03;;;;;;;;;;4900518;29;20036;-84
2021/06/28 11:36:24;;;;;;;3.35;1.88;;;;;;;;;;4899308;29;20482;-83
2021/06/28 11:39:00;;;;;;;3.20;1.95;;;;;;;;;;4900376;29;20494;-82
2021/06/28 11:41:28;;;;;;;3.92;2.08;;;;;;;;;;4919840;29;20025;-82
2021/06/28 11:43:58;;;;;;;2.65;1.83;;;;;;;;;;4919241;29;20036;-82
2021/06/28 11:46:30;;;;;;;3.80;1.83;;;;;;;;;;4919292;29;20032;-83
2021/06/28 11:48:57;;;;;;;2.67;1.88;;;;;;;;;;4902335;29;20055;-91
2021/06/28 11:51:24;;;;;;;3.00;1.88;;;;;;;;;;4902354;29;20491;-84
2021/06/28 11:54:10;;;;;;;5.65;1.90;;;;;;;;;;4902137;29;20020;-84
2021/06/28 11:56:59;;;;;;;9.90;1.90;;;;;;;;;;4919081;29;20036;-84
2021/06/28 11:59:26;;;;;;;2.80;1.70;;;;;;;;;;4901796;29;20119;-84
2021/06/28 12:01:54;;;;;;;4.40;1.77;;;;;;;;;;4902137;29;20079;-85
2021/06/28 12:04:21;;;;;;;2.60;1.75;;;;;;;;;;4902171;29;20474;-84
2021/06/28 12:06:49;;;;;;;3.30;1.70;;;;;;;;;;4901996;29;20398;-85
2021/06/28 12:09:17;;;;;;;2.15;1.65;;;;;;;;;;4901860;29;20470;-90
2021/06/28 12:12:00;;;;;;;2.63;1.80;;;;;;;;;;4918897;29;20442;-84
2021/06/28 12:14:26;;;;;;;;;;;;;;;;;;4902522;29;20028;-90
2021/06/28 12:16:52;;;;;;;8.93;2.00;;;;;;;;;;4901977;29;19962;-84
2021/06/28 12:19:19;;;;;;;3.78;1.83;;;;;;;;;;4918677;29;20048;-84
2021/06/28 12:21:45;;;;;;;3.67;1.83;;;;;;;;;;4919168;29;20032;-84
2021/06/28 12:24:16;;;;;;;3.42;1.80;;;;;;;;;;4901860;29;20389;-85
2021/06/28 12:26:58;;;;;;;8.32;1.90;;;;;;;;;;4918658;29;20024;-86
2021/06/28 12:29:24;;;;;;;;;;;;;;;;;;4902308;29;20036;-86
2021/06/28 12:31:50;;;;;;;2.72;1.90;;;;;;;;;;4901849;29;19914;-85
2021/06/28 12:34:20;;;;;;;4.47;1.70;;;;;;;;;;4901657;29;20027;-91
2021/06/28 12:36:52;;;;;;;2.80;1.85;;;;;;;;;;4901605;29;20032;-85
2021/06/28 12:39:25;;;;;;;3.40;2.25;;;;;;;;;;4897837;29;20056;-85
2021/06/28 12:41:52;;;;;;;2.80;2.00;;;;;;;;;;4898215;29;20020;-85
2021/06/28 12:44:19;;;;;;;2.95;1.77;;;;;;;;;;4898017;29;20468;-93
2021/06/28 12:46:46;;;;;;;3.35;1.73;;;;;;;;;;4898308;29;20021;-90
2021/06/28 12:49:13;;;;;;;2.70;1.65;;;;;;;;;;4898065;29;20077;-85
2021/06/28 12:51:39;;;;;;;7.15;1.98;;;;;;;;;;4897953;29;20033;-85
2021/06/28 12:54:23;;;;;;;10.20;1.83;;;;;;;;;;4897950;29;20107;-86
2021/06/28 12:56:50;;;;;;;3.38;2.20;;;;;;;;;;4898135;29;20452;-84
2021/06/28 12:59:32;;;;;;;4.93;2.20;;;;;;;;;;4897926;29;20039;-84
2021/06/28 13:01:59;;;;;;;2.75;1.60;;;;;;;;;;4897869;29;20482;-84
2021/06/28 13:04:26;;;;;;;5.63;2.00;;;;;;;;;;4897821;29;20076;-84
2021/06/28 13:06:54;;;;;;;7.25;1.80;;;;;;;;;;4898134;29;20032;-85
2021/06/28 13:09:21;;;;;;;3.00;1.90;;;;;;;;;;4898791;29;20036;-85
2021/06/28 13:11:48;;;;;;;3.03;1.80;;;;;;;;;;4897366;29;20533;-90
2021/06/28 13:14:28;;;;;;;8.05;2.17;;;;;;;;;;4899008;29;20033;-86
2021/06/28 13:17:14;;;;;;;3.45;2.00;;;;;;;;;;4897632;29;20028;-88
2021/06/28 13:19:40;;;;;;;2.08;1.55;;;;;;;;;;4897539;29;20071;-84
2021/06/28 13:22:06;;;;;;;4.65;1.83;;;;;;;;;;4898782;29;20084;-84
2021/06/28 13:24:34;;;;;;;4.43;1.90;;;;;;;;;;4898816;29;20104;-85
2021/06/28 13:27:01;;;;;;;2.38;1.55;;;;;;;;;;4897578;29;20025;-86
2021/06/28 13:29:34;;;;;;;3.03;1.80;;;;;;;;;;4897731;29;20039;-84
2021/06/28 13:32:11;;;;;;;2.65;1.80;;;;;;;;;;4897319;29;20031;-84
2021/06/28 13:34:37;;;;;;;2.83;1.58;;;;;;;;;;4897351;29;20088;-87
2021/06/28 13:37:13;;;;;;;3.50;1.70;;;;;;;;;;4898567;29;20509;-84
2021/06/28 13:39:41;;;;;;;4.80;1.95;;;;;;;;;;4897116;29;20093;-85
2021/06/28 13:42:24;;;;;;;2.30;1.65;;;;;;;;;;4897280;29;20028;-84
2021/06/28 13:45:02;;;;;;;5.93;1.60;;;;;;;;;;4897238;29;20047;-84
2021/06/28 13:47:29;;;;;;;2.63;1.55;;;;;;;;;;4897056;29;20475;-84
2021/06/28 13:49:55;;;;;;;8.73;1.98;;;;;;;;;;4898268;29;20466;-84
2021/06/28 13:52:22;;;;;;;6.30;1.60;;;;;;;;;;4898296;29;20029;-84
2021/06/28 13:54:48;;;;;;;7.72;2.00;;;;;;;;;;4898359;29;20033;-85
2021/06/28 13:57:14;;;;;;;2.55;1.60;;;;;;;;;;4898314;29;20534;-84
2021/06/28 13:59:41;;;;;;;2.55;1.80;;;;;;;;;;4898243;29;20044;-84
2021/06/28 14:02:08;;;;;;;4.80;1.67;;;;;;;;;;4898799;29;20028;-84
2021/06/28 14:04:35;;;;;;;3.13;2.00;;;;;;;;;;4896951;29;20032;-84
2021/06/28 14:07:01;;;;;;;2.72;1.88;;;;;;;;;;4897023;29;20032;-84
2021/06/28 14:09:27;;;;;;;6.53;1.80;;;;;;;;;;4898762;29;20035;-85
2021/06/28 14:11:54;;;;;;;3.55;1.70;;;;;;;;;;4896958;29;20443;-84
2021/06/28 14:14:20;;;;;;;3.28;1.70;;;;;;;;;;4897016;29;20123;-84
2021/06/28 14:16:46;;;;;;;2.58;1.70;;;;;;;;;;4896916;29;20031;-84
2021/06/28 14:19:12;;;;;;;2.50;1.90;;;;;;;;;;4898542;29;20043;-84
2021/06/28 14:21:39;;;;;;;2.67;1.63;;;;;;;;;;4897857;29;20029;-83
2021/06/28 14:24:06;;;;;;;2.33;1.73;;;;;;;;;;4900629;29;20457;-90
2021/06/28 14:26:32;;;;;;;4.57;1.83;;;;;;;;;;4900781;29;20096;-84
2021/06/28 14:28:58;;;;;;;3.90;1.70;;;;;;;;;;4900848;29;20474;-83
2021/06/28 14:31:24;;;;;;;2.03;1.52;;;;;;;;;;4900760;29;20068;-84
2021/06/28 14:33:50;;;;;;;2.90;1.65;;;;;;;;;;4900639;29;20107;-84
2021/06/28 14:36:17;;;;;;;2.35;1.73;;;;;;;;;;4900396;29;20107;-84
2021/06/28 14:38:43;;;;;;;3.25;1.63;;;;;;;;;;4900295;29;20024;-83
2021/06/28 14:41:09;;;;;;;2.50;1.55;;;;;;;;;;4899968;29;20097;-84
2021/06/28 14:43:36;;;;;;;4.82;1.80;;;;;;;;;;4901589;29;20493;-84
2021/06/28 14:46:02;;;;;;;2.72;1.90;;;;;;;;;;4901424;29;20028;-85
2021/06/28 14:48:28;;;;;;;7.78;1.70;;;;;;;;;;4901810;29;20036;-84